createdAt,value
2019-01-06T00:00:19.765Z,-6.17
2019-01-06T00:03:11.421Z,-6.17
2019-01-06T00:06:19.607Z,-6.13
2019-01-06T00:09:24.797Z,-6.05
2019-01-06T00:12:07.186Z,-5.97
2019-01-06T00:14:49.774Z,-5.91
2019-01-06T00:17:38.876Z,-5.96
2019-01-06T00:20:27.656Z,-5.88
2019-01-06T00:23:14.572Z,-5.99
2019-01-06T00:26:20.409Z,-5.96
2019-01-06T00:29:10.277Z,-5.88
2019-01-06T00:32:03.047Z,-5.90
2019-01-06T00:34:58.988Z,-5.75
2019-01-06T00:38:04.604Z,-5.73
2019-01-06T00:40:53.015Z,-5.75
2019-01-06T00:43:49.127Z,-5.67
2019-01-06T00:46:42.103Z,-5.59
2019-01-06T00:49:41.128Z,-5.51
2019-01-06T00:52:43.207Z,-5.51
2019-01-06T00:55:33.674Z,-5.46
2019-01-06T00:58:22.495Z,-5.45
2019-01-06T01:01:11.228Z,-5.49
2019-01-06T01:03:59.942Z,-5.39
2019-01-06T01:06:48.488Z,-5.34
2019-01-06T01:09:55.633Z,-5.31
2019-01-06T01:12:57.649Z,-5.25
2019-01-06T01:15:59.846Z,-5.32
2019-01-06T01:18:56.087Z,-5.34
2019-01-06T01:21:52.356Z,-5.44
2019-01-06T01:24:58.698Z,-5.41
2019-01-06T01:27:57.402Z,-5.50
2019-01-06T01:30:53.240Z,-5.61
2019-01-06T01:33:41.638Z,-5.70
2019-01-06T01:36:49.849Z,-5.66
2019-01-06T01:39:45.612Z,-5.62
2019-01-06T01:42:44.820Z,-5.57
2019-01-06T01:45:40.929Z,-5.57
2019-01-06T01:48:29.627Z,-5.59
2019-01-06T01:51:18.037Z,-5.44
2019-01-06T01:54:06.573Z,-5.41
2019-01-06T01:57:07.977Z,-5.28
2019-01-06T01:59:57.023Z,-5.22
2019-01-06T02:02:45.608Z,-5.21
2019-01-06T02:05:34.358Z,-5.25
2019-01-06T02:08:22.980Z,-5.44
2019-01-06T02:11:11.654Z,-5.48
2019-01-06T02:14:07.696Z,-5.47
2019-01-06T02:17:12.970Z,-5.45
2019-01-06T02:20:03.010Z,-5.52
2019-01-06T02:22:53.147Z,-5.43
2019-01-06T02:25:41.691Z,-5.32
2019-01-06T02:28:41.207Z,-5.36
2019-01-06T02:31:39.877Z,-5.43
2019-01-06T02:34:28.469Z,-5.36
2019-01-06T02:37:17.306Z,-5.35
2019-01-06T02:40:06.847Z,-5.36
2019-01-06T02:43:02.951Z,-5.28
2019-01-06T02:46:05.068Z,-5.28
2019-01-06T02:48:53.906Z,-5.14
2019-01-06T02:51:51.320Z,-5.19
2019-01-06T02:54:40.035Z,-5.09
2019-01-06T02:57:28.826Z,-5.24
2019-01-06T03:00:36.808Z,-5.16
2019-01-06T03:03:25.587Z,-5.26
2019-01-06T03:06:16.227Z,-5.36
2019-01-06T03:09:06.522Z,-5.45
2019-01-06T03:11:53.761Z,-5.39
2019-01-06T03:14:44.110Z,-5.52
2019-01-06T03:17:52.619Z,-5.34
2019-01-06T03:20:39.687Z,-5.34
2019-01-06T03:23:28.564Z,-5.44
2019-01-06T03:26:21.535Z,-5.44
2019-01-06T03:29:10.335Z,-5.33
2019-01-06T03:32:18.476Z,-5.31
2019-01-06T03:35:11.497Z,-5.14
2019-01-06T03:38:00.166Z,-5.25
2019-01-06T03:40:48.105Z,-5.17
2019-01-06T03:43:31.953Z,-5.07
2019-01-06T03:46:19.697Z,-5.01
2019-01-06T03:49:12.649Z,-4.96
2019-01-06T03:52:10.908Z,-4.82
2019-01-06T03:55:03.895Z,-5.10
2019-01-06T03:57:57.117Z,-5.21
2019-01-06T04:00:50.148Z,-5.19
2019-01-06T04:03:48.828Z,-5.32
2019-01-06T04:06:53.877Z,-5.30
2019-01-06T04:09:52.901Z,-5.21
2019-01-06T04:12:52.100Z,-5.12
2019-01-06T04:15:40.743Z,-5.23
2019-01-06T04:18:30.957Z,-5.23
2019-01-06T04:21:27.194Z,-5.15
2019-01-06T04:24:16.291Z,-5.06
2019-01-06T04:27:21.280Z,-5.00
2019-01-06T04:30:10.041Z,-5.00
2019-01-06T04:33:13.646Z,-4.89
2019-01-06T04:36:19.132Z,-4.90
2019-01-06T04:39:18.008Z,-4.99
2019-01-06T04:42:08.299Z,-4.90
2019-01-06T04:44:57.323Z,-4.84
2019-01-06T04:47:47.230Z,-4.65
2019-01-06T04:50:52.690Z,-4.54
2019-01-06T04:53:41.047Z,-4.41
2019-01-06T04:56:29.563Z,-4.38
2019-01-06T04:59:18.598Z,-4.35
2019-01-06T05:02:14.749Z,-4.33
2019-01-06T05:05:08.091Z,-4.35
2019-01-06T05:07:58.209Z,-4.24
2019-01-06T05:10:48.434Z,-4.31
2019-01-06T05:13:41.607Z,-4.20
2019-01-06T05:16:35.691Z,-4.04
2019-01-06T05:19:28.634Z,-3.91
2019-01-06T05:22:36.929Z,-3.94
2019-01-06T05:25:33.045Z,-3.95
2019-01-06T05:28:34.873Z,-3.86
2019-01-06T05:31:42.964Z,-3.69
2019-01-06T05:34:36.184Z,-3.61
2019-01-06T05:37:35.138Z,-3.48
2019-01-06T05:40:24.024Z,-3.38
2019-01-06T05:43:17.237Z,-3.36
2019-01-06T05:46:16.103Z,-3.33
2019-01-06T05:49:24.395Z,-3.35
2019-01-06T05:52:14.462Z,-3.34
2019-01-06T05:55:10.774Z,-3.39
2019-01-06T05:57:59.263Z,-3.36
2019-01-06T06:00:40.825Z,-3.38
2019-01-06T06:03:26.757Z,-3.31
2019-01-06T06:06:07.882Z,-3.23
2019-01-06T06:08:58.121Z,-3.20
2019-01-06T06:11:46.498Z,-3.30
2019-01-06T06:14:36.651Z,-3.36
2019-01-06T06:17:30.972Z,-3.36
2019-01-06T06:20:33.301Z,-3.28
2019-01-06T06:23:35.543Z,-3.21
2019-01-06T06:26:28.906Z,-3.09
2019-01-06T06:29:31.308Z,-2.87
2019-01-06T06:32:20.324Z,-2.62
2019-01-06T06:35:08.883Z,-2.47
2019-01-06T06:37:58.756Z,-2.43
2019-01-06T06:41:00.323Z,-2.31
2019-01-06T06:44:05.438Z,-2.22
2019-01-06T06:46:58.261Z,-2.05
2019-01-06T06:49:54.296Z,-2.07
2019-01-06T06:52:43.022Z,-2.02
2019-01-06T06:55:35.478Z,-1.93
2019-01-06T06:58:29.786Z,-1.86
2019-01-06T07:01:44.591Z,-1.86
2019-01-06T07:04:40.995Z,-1.86
2019-01-06T07:07:32.798Z,-1.81
2019-01-06T07:10:21.753Z,-1.76
2019-01-06T07:13:10.219Z,-1.68
2019-01-06T07:16:15.835Z,-1.82
2019-01-06T07:19:06.023Z,-1.81
2019-01-06T07:21:54.932Z,-1.90
2019-01-06T07:24:43.294Z,-1.88
2019-01-06T07:27:39.345Z,-1.82
2019-01-06T07:30:41.748Z,-1.94
2019-01-06T07:33:28.882Z,-1.93
2019-01-06T07:36:17.345Z,-1.88
2019-01-06T07:39:16.375Z,-1.80
2019-01-06T07:42:21.074Z,-1.74
2019-01-06T07:45:23.180Z,-1.51
2019-01-06T07:48:20.208Z,-1.52
2019-01-06T07:51:07.121Z,-1.44
2019-01-06T07:54:05.076Z,-1.38
2019-01-06T07:57:13.069Z,-1.25
2019-01-06T08:00:06.147Z,-1.14
2019-01-06T08:02:56.573Z,-1.37
2019-01-06T08:05:46.619Z,-1.26
2019-01-06T08:08:39.724Z,-1.32
2019-01-06T08:11:35.596Z,-1.18
2019-01-06T08:14:24.727Z,-1.04
2019-01-06T08:17:17.735Z,-0.96
2019-01-06T08:20:15.055Z,-0.88
2019-01-06T08:23:23.652Z,-0.88
2019-01-06T08:26:23.244Z,-0.97
2019-01-06T08:29:12.787Z,-1.10
2019-01-06T08:32:11.927Z,-1.02
2019-01-06T08:35:03.072Z,-1.11
2019-01-06T08:37:55.678Z,-1.01
2019-01-06T08:40:44.096Z,-1.00
2019-01-06T08:43:52.202Z,-0.89
2019-01-06T08:46:44.856Z,-0.83
2019-01-06T08:49:30.647Z,-0.59
2019-01-06T08:52:23.548Z,-0.71
2019-01-06T08:55:12.111Z,-0.70
2019-01-06T08:57:58.151Z,-0.63
2019-01-06T09:00:48.091Z,-0.47
2019-01-06T09:03:36.691Z,-0.37
2019-01-06T09:06:33.142Z,-0.46
2019-01-06T09:09:27.558Z,-0.41
2019-01-06T09:12:42.842Z,-0.52
2019-01-06T09:15:26.307Z,-0.52
2019-01-06T09:18:16.703Z,-0.54
2019-01-06T09:21:12.888Z,-0.48
2019-01-06T09:24:01.415Z,-0.49
2019-01-06T09:26:49.776Z,-0.63
2019-01-06T09:29:42.504Z,-0.74
2019-01-06T09:32:50.850Z,-0.81
2019-01-06T09:35:56.268Z,-0.84
2019-01-06T09:38:52.609Z,-0.82
2019-01-06T09:41:48.817Z,-0.83
2019-01-06T09:44:37.469Z,-0.83
2019-01-06T09:47:45.698Z,-1.05
2019-01-06T09:50:54.263Z,-0.78
2019-01-06T09:53:42.717Z,-1.04
2019-01-06T09:56:44.840Z,-0.96
2019-01-06T09:59:53.180Z,-0.88
2019-01-06T10:02:49.555Z,-0.70
2019-01-06T10:05:38.868Z,-0.70
2019-01-06T10:08:27.468Z,-0.71
2019-01-06T10:11:26.596Z,-0.74
2019-01-06T10:14:19.692Z,-0.82
2019-01-06T10:17:15.936Z,-0.72
2019-01-06T10:20:04.959Z,-0.82
2019-01-06T10:22:55.176Z,-0.86
2019-01-06T10:25:48.922Z,-0.68
2019-01-06T10:28:41.641Z,-0.80
2019-01-06T10:31:41.010Z,-0.77
2019-01-06T10:34:39.247Z,-0.67
2019-01-06T10:37:45.308Z,-0.57
2019-01-06T10:40:51.465Z,-0.56
2019-01-06T10:43:37.377Z,-0.41
2019-01-06T10:46:19.345Z,-0.49
2019-01-06T10:49:17.302Z,-0.41
2019-01-06T10:52:13.386Z,-0.46
2019-01-06T10:55:00.664Z,-0.41
2019-01-06T10:58:09.150Z,-0.33
2019-01-06T11:01:05.089Z,-0.17
2019-01-06T11:04:03.768Z,-0.11
2019-01-06T11:06:49.902Z,-0.12
2019-01-06T11:09:42.220Z,0.03
2019-01-06T11:12:30.884Z,-0.06
2019-01-06T11:15:30.063Z,-0.21
2019-01-06T11:18:19.716Z,-0.19
2019-01-06T11:21:10.084Z,-0.03
2019-01-06T11:23:56.558Z,-0.13
2019-01-06T11:27:01.725Z,-0.14
2019-01-06T11:29:51.920Z,-0.01
2019-01-06T11:32:51.395Z,-0.06
2019-01-06T11:35:41.487Z,-0.04
2019-01-06T11:38:30.427Z,0.01
2019-01-06T11:41:15.425Z,0.21
2019-01-06T11:44:23.603Z,0.31
2019-01-06T11:47:16.453Z,0.22
2019-01-06T11:50:06.586Z,0.31
2019-01-06T11:53:05.530Z,0.37
2019-01-06T11:55:54.540Z,0.35
2019-01-06T11:59:02.976Z,0.39
2019-01-06T12:02:11.116Z,0.38
2019-01-06T12:04:59.765Z,0.26
2019-01-06T12:07:46.766Z,0.28
2019-01-06T12:10:35.791Z,0.35
2019-01-06T12:13:24.281Z,0.36
2019-01-06T12:16:13.014Z,0.28
2019-01-06T12:19:06.097Z,0.26
2019-01-06T12:22:11.461Z,0.28
2019-01-06T12:25:01.689Z,0.23
2019-01-06T12:27:50.232Z,0.28
2019-01-06T12:30:43.216Z,0.21
2019-01-06T12:33:31.563Z,0.33
2019-01-06T12:36:20.267Z,0.21
2019-01-06T12:39:25.769Z,0.35
2019-01-06T12:42:15.937Z,0.32
2019-01-06T12:45:04.505Z,0.33
2019-01-06T12:47:54.783Z,0.32
2019-01-06T12:50:51.071Z,0.20
2019-01-06T12:53:41.014Z,0.19
2019-01-06T12:56:38.632Z,0.22
2019-01-06T12:59:26.799Z,0.18
2019-01-06T13:02:18.482Z,0.32
2019-01-06T13:05:23.680Z,0.41
2019-01-06T13:08:08.799Z,0.64
2019-01-06T13:11:12.332Z,0.67
2019-01-06T13:14:01.157Z,0.78
2019-01-06T13:16:49.490Z,0.75
2019-01-06T13:19:51.981Z,0.74
2019-01-06T13:22:48.011Z,0.88
2019-01-06T13:25:44.570Z,0.75
2019-01-06T13:28:37.718Z,0.72
2019-01-06T13:31:26.581Z,0.67
2019-01-06T13:34:28.705Z,0.69
2019-01-06T13:37:31.204Z,0.68
2019-01-06T13:40:21.501Z,0.67
2019-01-06T13:43:10.314Z,0.63
2019-01-06T13:46:15.211Z,0.70
2019-01-06T13:49:20.346Z,0.80
2019-01-06T13:52:09.031Z,0.84
2019-01-06T13:55:02.654Z,0.92
2019-01-06T13:58:01.581Z,0.91
2019-01-06T14:01:04.406Z,0.98
2019-01-06T14:03:53.019Z,1.07
2019-01-06T14:06:48.919Z,1.22
2019-01-06T14:09:53.136Z,1.09
2019-01-06T14:12:41.454Z,1.19
2019-01-06T14:15:30.183Z,1.08
2019-01-06T14:18:20.245Z,1.10
2019-01-06T14:21:08.812Z,1.12
2019-01-06T14:24:09.452Z,1.09
2019-01-06T14:27:02.543Z,0.97
2019-01-06T14:30:07.738Z,0.93
2019-01-06T14:32:57.882Z,0.93
2019-01-06T14:35:46.974Z,1.01
2019-01-06T14:38:42.892Z,0.93
2019-01-06T14:41:36.110Z,0.84
2019-01-06T14:44:38.281Z,0.72
2019-01-06T14:47:26.979Z,0.66
2019-01-06T14:50:35.369Z,0.57
2019-01-06T14:53:23.781Z,0.50
2019-01-06T14:56:12.385Z,0.43
2019-01-06T14:59:02.780Z,0.32
2019-01-06T15:02:05.194Z,0.23
2019-01-06T15:05:02.660Z,0.14
2019-01-06T15:07:51.473Z,0.07
2019-01-06T15:10:39.854Z,0.09
2019-01-06T15:13:38.067Z,0.02
2019-01-06T15:16:31.260Z,-0.15
2019-01-06T15:19:20.006Z,-0.26
2019-01-06T15:22:18.855Z,-0.33
2019-01-06T15:25:08.739Z,-0.28
2019-01-06T15:28:01.757Z,-0.36
2019-01-06T15:30:49.994Z,-0.27
2019-01-06T15:33:43.053Z,-0.52
2019-01-06T15:36:31.530Z,-0.46
2019-01-06T15:39:20.371Z,-0.36
2019-01-06T15:42:22.839Z,-0.48
2019-01-06T15:45:18.844Z,-0.46
2019-01-06T15:48:07.579Z,-0.40
2019-01-06T15:51:09.616Z,-0.39
2019-01-06T15:54:02.657Z,-0.39
2019-01-06T15:56:51.234Z,-0.34
2019-01-06T15:59:44.257Z,-0.45
2019-01-06T16:02:52.606Z,-0.57
2019-01-06T16:05:42.847Z,-0.52
2019-01-06T16:08:45.101Z,-0.58
2019-01-06T16:11:35.081Z,-0.65
2019-01-06T16:14:28.305Z,-0.78
2019-01-06T16:17:18.305Z,-0.84
2019-01-06T16:20:08.347Z,-0.74
2019-01-06T16:23:01.775Z,-0.69
2019-01-06T16:25:50.366Z,-0.74
2019-01-06T16:28:49.351Z,-0.89
2019-01-06T16:31:57.239Z,-0.94
2019-01-06T16:34:48.060Z,-0.85
2019-01-06T16:37:36.374Z,-0.99
2019-01-06T16:40:25.229Z,-0.97
2019-01-06T16:43:21.489Z,-0.98
2019-01-06T16:46:10.355Z,-1.09
2019-01-06T16:49:12.821Z,-1.04
2019-01-06T16:52:09.008Z,-1.07
2019-01-06T16:54:58.979Z,-1.11
2019-01-06T16:57:47.785Z,-1.15
2019-01-06T17:00:36.781Z,-1.16
2019-01-06T17:03:39.257Z,-1.17
2019-01-06T17:06:29.433Z,-1.25
2019-01-06T17:09:18.359Z,-1.23
2019-01-06T17:12:23.469Z,-1.26
2019-01-06T17:15:12.493Z,-1.27
2019-01-06T17:18:05.293Z,-1.27
2019-01-06T17:21:10.397Z,-1.31
2019-01-06T17:24:03.484Z,-1.35
2019-01-06T17:26:52.170Z,-1.34
2019-01-06T17:29:37.653Z,-1.38
2019-01-06T17:32:26.420Z,-1.41
2019-01-06T17:35:12.262Z,-1.63
2019-01-06T17:37:59.408Z,-1.80
2019-01-06T17:40:49.620Z,-1.90
2019-01-06T17:43:38.067Z,-1.99
2019-01-06T17:46:28.111Z,-2.07
2019-01-06T17:49:29.912Z,-2.23
2019-01-06T17:52:29.236Z,-2.22
2019-01-06T17:55:22.714Z,-2.21
2019-01-06T17:58:18.730Z,-2.11
2019-01-06T18:01:23.715Z,-2.11
2019-01-06T18:04:12.217Z,-2.08
2019-01-06T18:07:14.528Z,-2.01
2019-01-06T18:10:07.478Z,-2.19
2019-01-06T18:13:12.678Z,-2.13
2019-01-06T18:16:11.506Z,-2.08
2019-01-06T18:19:04.385Z,-2.13
2019-01-06T18:21:53.216Z,-2.08
2019-01-06T18:25:01.739Z,-2.04
2019-01-06T18:27:58.150Z,-2.00
2019-01-06T18:31:06.321Z,-1.97
2019-01-06T18:33:55.010Z,-1.94
2019-01-06T18:36:50.277Z,-1.88
2019-01-06T18:39:35.098Z,-1.75
2019-01-06T18:42:32.609Z,-1.60
2019-01-06T18:45:35.184Z,-1.57
2019-01-06T18:48:23.737Z,-1.62
2019-01-06T18:51:31.973Z,-1.48
2019-01-06T18:54:27.998Z,-1.62
2019-01-06T18:57:16.786Z,-1.60
2019-01-06T19:00:15.733Z,-1.66
2019-01-06T19:03:04.486Z,-1.65
2019-01-06T19:06:09.347Z,-1.56
2019-01-06T19:08:59.256Z,-1.48
2019-01-06T19:11:51.251Z,-1.53
2019-01-06T19:14:47.370Z,-1.56
2019-01-06T19:17:55.838Z,-1.58
2019-01-06T19:20:44.929Z,-1.64
2019-01-06T19:23:42.081Z,-1.58
2019-01-06T19:26:35.440Z,-1.35
2019-01-06T19:29:24.079Z,-1.32
2019-01-06T19:32:12.788Z,-1.27
2019-01-06T19:35:18.055Z,-1.39
2019-01-06T19:38:17.546Z,-1.47
2019-01-06T19:41:06.086Z,-1.42
2019-01-06T19:43:56.126Z,-1.42
2019-01-06T19:46:51.872Z,-1.39
2019-01-06T19:49:40.665Z,-1.49
2019-01-06T19:52:42.594Z,-1.41
2019-01-06T19:55:31.451Z,-1.44
2019-01-06T19:58:36.787Z,-1.43
2019-01-06T20:01:25.369Z,-1.49
2019-01-06T20:04:21.064Z,-1.46
2019-01-06T20:07:11.500Z,-1.45
2019-01-06T20:10:07.435Z,-1.38
2019-01-06T20:13:12.708Z,-1.37
2019-01-06T20:16:15.101Z,-1.26
2019-01-06T20:19:03.940Z,-1.30
2019-01-06T20:21:52.472Z,-1.28
2019-01-06T20:24:47.071Z,-1.24
2019-01-06T20:27:49.613Z,-1.29
2019-01-06T20:30:37.885Z,-1.39
2019-01-06T20:33:29.879Z,-1.46
2019-01-06T20:36:20.362Z,-1.42
2019-01-06T20:39:08.833Z,-1.43
2019-01-06T20:42:05.012Z,-1.34
2019-01-06T20:44:53.818Z,-1.36
2019-01-06T20:47:42.684Z,-1.39
2019-01-06T20:50:31.105Z,-1.34
2019-01-06T20:53:34.292Z,-1.48
2019-01-06T20:56:22.568Z,-1.49
2019-01-06T20:59:21.550Z,-1.38
2019-01-06T21:02:10.042Z,-1.43
2019-01-06T21:05:03.129Z,-1.58
2019-01-06T21:07:56.432Z,-1.60
2019-01-06T21:10:42.880Z,-1.57
2019-01-06T21:13:39.084Z,-1.60
2019-01-06T21:16:35.207Z,-1.54
2019-01-06T21:19:31.424Z,-1.52
2019-01-06T21:22:21.613Z,-1.48
2019-01-06T21:25:20.994Z,-1.67
2019-01-06T21:28:10.955Z,-1.76
2019-01-06T21:30:59.403Z,-1.88
2019-01-06T21:33:47.908Z,-1.80
2019-01-06T21:36:33.811Z,-1.77
2019-01-06T21:39:25.710Z,-1.72
2019-01-06T21:42:18.739Z,-1.80
2019-01-06T21:45:08.699Z,-1.83
2019-01-06T21:48:07.829Z,-1.92
2019-01-06T21:51:01.319Z,-1.89
2019-01-06T21:54:03.891Z,-1.89
2019-01-06T21:56:48.603Z,-1.85
2019-01-06T21:59:37.231Z,-1.90
2019-01-06T22:02:25.735Z,-1.84
2019-01-06T22:05:24.473Z,-1.79
2019-01-06T22:08:29.717Z,-1.77
2019-01-06T22:11:19.639Z,-1.72
2019-01-06T22:14:27.735Z,-1.75
2019-01-06T22:17:24.070Z,-1.68
2019-01-06T22:20:18.587Z,-1.61
2019-01-06T22:23:08.524Z,-1.65
2019-01-06T22:25:56.092Z,-1.72
2019-01-06T22:28:47.413Z,-1.64
2019-01-06T22:31:35.810Z,-1.72
2019-01-06T22:34:24.536Z,-1.87
2019-01-06T22:37:14.468Z,-1.90
2019-01-06T22:40:19.613Z,-1.94
2019-01-06T22:43:09.507Z,-1.89
2019-01-06T22:45:58.052Z,-1.96
2019-01-06T22:48:52.041Z,-1.94
2019-01-06T22:51:47.704Z,-1.97
2019-01-06T22:54:38.021Z,-1.97
2019-01-06T22:57:26.772Z,-2.03
2019-01-06T23:00:15.318Z,-1.99
2019-01-06T23:03:08.862Z,-2.04
2019-01-06T23:05:57.510Z,-2.08
2019-01-06T23:09:02.998Z,-2.08
2019-01-06T23:11:47.065Z,-2.04
2019-01-06T23:14:34.446Z,-2.03
2019-01-06T23:17:33.626Z,-1.94
2019-01-06T23:20:29.558Z,-1.87
2019-01-06T23:23:18.465Z,-1.91
2019-01-06T23:26:17.194Z,-1.87
2019-01-06T23:29:05.738Z,-1.88
2019-01-06T23:32:05.228Z,-1.77
2019-01-06T23:35:04.369Z,-1.74
2019-01-06T23:37:56.514Z,-1.70
2019-01-06T23:40:45.226Z,-1.87
2019-01-06T23:43:33.964Z,-1.94
2019-01-06T23:46:33.343Z,-1.99
2019-01-06T23:49:25.978Z,-1.93
2019-01-06T23:52:31.297Z,-2.02
2019-01-06T23:55:39.450Z,-2.04
2019-01-06T23:58:20.705Z,-2.05
